createdAt,value
2023-07-30T00:02:23.404Z,97991.98
2023-07-30T00:04:50.678Z,97993.66
2023-07-30T00:07:17.728Z,97991.66
2023-07-30T00:09:44.746Z,97990.02
2023-07-30T00:12:11.769Z,97988.98
2023-07-30T00:14:38.884Z,97985.37
2023-07-30T00:17:06.026Z,97985.94
2023-07-30T00:19:33.162Z,97986.91
2023-07-30T00:22:00.350Z,97979.93
2023-07-30T00:24:27.379Z,97983.21
2023-07-30T00:26:54.488Z,97978.50
2023-07-30T00:29:21.480Z,97974.30
2023-07-30T00:31:48.561Z,97978.17
2023-07-30T00:34:15.626Z,97979.96
2023-07-30T00:36:42.799Z,97986.67
2023-07-30T00:39:12.455Z,97990.14
2023-07-30T00:41:40.044Z,97988.85
2023-07-30T00:44:07.431Z,97988.73
2023-07-30T00:46:36.132Z,97979.99
2023-07-30T00:49:04.260Z,97974.09
2023-07-30T00:51:32.722Z,97976.19
2023-07-30T00:53:59.859Z,97973.48
2023-07-30T00:56:27.728Z,97974.50
2023-07-30T00:58:54.683Z,97982.27
2023-07-30T01:01:22.222Z,97985.38
2023-07-30T01:03:49.753Z,97989.29
2023-07-30T01:06:16.970Z,97982.14
2023-07-30T01:08:44.014Z,97981.52
2023-07-30T01:11:11.118Z,97981.15
2023-07-30T01:13:38.386Z,97979.87
2023-07-30T01:16:05.954Z,97983.97
2023-07-30T01:18:33.156Z,97986.08
2023-07-30T01:21:00.479Z,97993.87
2023-07-30T01:23:27.602Z,97989.30
2023-07-30T01:26:01.075Z,97989.94
2023-07-30T01:28:28.175Z,97982.86
2023-07-30T01:30:56.099Z,97970.88
2023-07-30T01:33:23.968Z,97968.88
2023-07-30T01:35:51.129Z,97970.38
2023-07-30T01:38:18.236Z,97971.68
2023-07-30T01:40:45.439Z,97970.83
2023-07-30T01:43:12.603Z,97973.26
2023-07-30T01:45:41.158Z,97976.41
2023-07-30T01:48:08.403Z,97975.06
2023-07-30T01:50:35.519Z,97975.80
2023-07-30T01:53:02.781Z,97975.91
2023-07-30T01:55:30.078Z,97976.04
2023-07-30T01:57:57.121Z,97968.77
2023-07-30T02:00:24.299Z,97965.56
2023-07-30T02:02:51.502Z,97968.02
2023-07-30T02:05:18.569Z,97967.63
2023-07-30T02:07:46.011Z,97967.80
2023-07-30T02:10:12.961Z,97966.67
2023-07-30T02:12:39.997Z,97973.27
2023-07-30T02:15:07.682Z,97973.20
2023-07-30T02:17:34.853Z,97974.99
2023-07-30T02:20:02.068Z,97977.70
2023-07-30T02:22:29.460Z,97977.48
2023-07-30T02:24:58.388Z,97982.72
2023-07-30T02:27:25.654Z,97984.66
2023-07-30T02:29:52.699Z,97985.40
2023-07-30T02:32:19.906Z,97984.95
2023-07-30T02:34:47.005Z,97990.27
2023-07-30T02:37:14.294Z,97991.15
2023-07-30T02:39:42.242Z,97995.81
2023-07-30T02:42:09.422Z,97997.20
2023-07-30T02:44:36.517Z,97995.89
2023-07-30T02:47:03.579Z,97998.95
2023-07-30T02:49:30.764Z,98006.45
2023-07-30T02:51:58.045Z,98007.90
2023-07-30T02:54:25.130Z,98009.67
2023-07-30T02:56:52.075Z,98008.77
2023-07-30T02:59:19.104Z,98004.25
2023-07-30T03:01:46.205Z,98004.06
2023-07-30T03:04:13.406Z,98001.89
2023-07-30T03:06:40.772Z,97996.02
2023-07-30T03:09:08.646Z,98000.10
2023-07-30T03:11:35.916Z,98008.59
2023-07-30T03:14:03.287Z,98012.63
2023-07-30T03:16:30.906Z,98010.58
2023-07-30T03:18:58.325Z,98011.34
2023-07-30T03:21:25.474Z,98007.52
2023-07-30T03:23:52.630Z,98001.23
2023-07-30T03:26:20.252Z,98003.56
2023-07-30T03:28:47.451Z,98002.66
2023-07-30T03:31:14.612Z,97998.16
2023-07-30T03:33:47.156Z,97987.02
2023-07-30T03:36:17.195Z,97978.81
2023-07-30T03:38:44.334Z,97982.66
2023-07-30T03:41:12.183Z,97980.02
2023-07-30T03:43:39.251Z,97982.73
2023-07-30T03:46:06.377Z,97988.64
2023-07-30T03:48:33.564Z,97986.12
2023-07-30T03:51:00.824Z,97986.90
2023-07-30T03:53:27.891Z,97983.94
2023-07-30T03:55:55.303Z,97984.11
2023-07-30T03:58:22.352Z,97975.58
2023-07-30T04:00:49.443Z,97974.36
2023-07-30T04:03:16.592Z,97984.12
2023-07-30T04:05:43.708Z,97993.13
2023-07-30T04:08:10.941Z,97999.94
2023-07-30T04:10:38.442Z,98008.81
2023-07-30T04:13:05.674Z,98004.30
2023-07-30T04:15:33.022Z,98007.00
2023-07-30T04:18:00.116Z,98006.34
2023-07-30T04:20:27.304Z,98001.84
2023-07-30T04:22:55.729Z,97998.16
2023-07-30T04:25:22.771Z,98003.26
2023-07-30T04:27:49.855Z,98005.69
2023-07-30T04:30:17.081Z,98004.95
2023-07-30T04:32:44.138Z,98011.19
2023-07-30T04:35:11.351Z,98018.50
2023-07-30T04:37:40.048Z,98022.12
2023-07-30T04:40:08.088Z,98023.64
2023-07-30T04:42:35.649Z,98027.66
2023-07-30T04:45:04.358Z,98031.98
2023-07-30T04:47:34.224Z,98029.91
2023-07-30T04:50:01.415Z,98032.95
2023-07-30T04:52:28.467Z,98030.90
2023-07-30T04:54:55.800Z,98017.38
2023-07-30T04:57:22.950Z,98014.89
2023-07-30T04:59:50.108Z,98011.20
2023-07-30T05:02:17.219Z,98005.37
2023-07-30T05:04:44.326Z,98004.05
2023-07-30T05:07:11.381Z,98005.02
2023-07-30T05:09:38.405Z,98008.45
2023-07-30T05:12:05.800Z,98014.52
2023-07-30T05:14:32.910Z,98012.84
2023-07-30T05:16:59.962Z,98019.03
2023-07-30T05:19:27.031Z,98024.77
2023-07-30T05:21:54.127Z,98035.56
2023-07-30T05:24:21.382Z,98044.37
2023-07-30T05:26:48.497Z,98054.12
2023-07-30T05:29:15.581Z,98048.46
2023-07-30T05:31:42.696Z,98040.36
2023-07-30T05:34:09.727Z,98038.45
2023-07-30T05:36:36.751Z,98036.59
2023-07-30T05:39:04.111Z,98037.10
2023-07-30T05:41:31.551Z,98034.63
2023-07-30T05:43:58.604Z,98033.99
2023-07-30T05:46:25.674Z,98038.64
2023-07-30T05:48:52.754Z,98043.23
2023-07-30T05:51:19.682Z,98043.94
2023-07-30T05:53:46.772Z,98046.21
2023-07-30T05:56:15.379Z,98047.95
2023-07-30T05:58:42.427Z,98046.79
2023-07-30T06:01:09.601Z,98048.05
2023-07-30T06:03:36.754Z,98045.68
2023-07-30T06:06:03.970Z,98051.39
2023-07-30T06:08:31.444Z,98047.07
2023-07-30T06:11:02.964Z,98043.54
2023-07-30T06:13:30.430Z,98038.98
2023-07-30T06:15:57.718Z,98041.11
2023-07-30T06:18:24.946Z,98044.21
2023-07-30T06:20:51.973Z,98043.23
2023-07-30T06:23:19.054Z,98042.79
2023-07-30T06:25:46.143Z,98041.14
2023-07-30T06:28:13.214Z,98039.36
2023-07-30T06:30:40.875Z,98043.19
2023-07-30T06:33:07.976Z,98047.80
2023-07-30T06:35:35.371Z,98049.76
2023-07-30T06:38:02.382Z,98046.20
2023-07-30T06:40:29.790Z,98045.19
2023-07-30T06:42:56.836Z,98052.63
2023-07-30T06:45:23.875Z,98059.98
2023-07-30T06:47:51.462Z,98062.23
2023-07-30T06:50:18.626Z,98058.06
2023-07-30T06:52:45.666Z,98059.08
2023-07-30T06:55:12.720Z,98064.17
2023-07-30T06:57:40.242Z,98064.29
2023-07-30T07:00:07.960Z,98063.53
2023-07-30T07:02:35.419Z,98060.83
2023-07-30T07:05:02.456Z,98059.65
2023-07-30T07:07:30.149Z,98058.55
2023-07-30T07:09:57.138Z,98055.56
2023-07-30T07:12:24.217Z,98053.52
2023-07-30T07:14:51.301Z,98054.68
2023-07-30T07:17:18.307Z,98051.18
2023-07-30T07:19:45.609Z,98046.56
2023-07-30T07:22:12.595Z,98050.20
2023-07-30T07:24:39.754Z,98046.85
2023-07-30T07:27:07.008Z,98042.81
2023-07-30T07:29:34.136Z,98040.98
2023-07-30T07:32:01.362Z,98042.59
2023-07-30T07:34:28.863Z,98041.88
2023-07-30T07:36:56.132Z,98042.14
2023-07-30T07:39:23.134Z,98044.58
2023-07-30T07:41:50.152Z,98041.77
2023-07-30T07:44:17.245Z,98042.96
2023-07-30T07:46:44.213Z,98042.85
2023-07-30T07:49:11.403Z,98035.65
2023-07-30T07:51:38.636Z,98030.58
2023-07-30T07:54:05.836Z,98035.34
2023-07-30T07:56:32.984Z,98036.88
2023-07-30T07:59:00.415Z,98038.20
2023-07-30T08:01:27.632Z,98040.95
2023-07-30T08:03:54.792Z,98040.74
2023-07-30T08:06:21.976Z,98040.36
2023-07-30T08:08:49.036Z,98038.41
2023-07-30T08:11:16.004Z,98034.16
2023-07-30T08:13:43.081Z,98032.39
2023-07-30T08:16:10.109Z,98031.55
2023-07-30T08:18:37.129Z,98027.46
2023-07-30T08:21:04.162Z,98021.02
2023-07-30T08:23:31.208Z,98021.95
2023-07-30T08:25:58.351Z,98021.13
2023-07-30T08:28:25.597Z,98018.08
2023-07-30T08:30:52.655Z,98021.55
2023-07-30T08:33:19.874Z,98022.55
2023-07-30T08:35:46.973Z,98018.88
2023-07-30T08:38:14.108Z,98020.98
2023-07-30T08:40:41.238Z,98021.09
2023-07-30T08:43:08.326Z,98006.55
2023-07-30T08:45:35.448Z,98012.52
2023-07-30T08:48:02.540Z,98014.21
2023-07-30T08:50:29.935Z,98015.25
2023-07-30T08:52:57.096Z,98014.23
2023-07-30T08:55:24.563Z,98017.57
2023-07-30T08:57:52.034Z,98021.63
2023-07-30T09:00:19.046Z,98020.92
2023-07-30T09:02:49.913Z,98020.65
2023-07-30T09:05:17.089Z,98013.68
2023-07-30T09:07:44.204Z,98010.48
2023-07-30T09:10:11.265Z,98011.58
2023-07-30T09:12:38.516Z,98009.95
2023-07-30T09:15:07.003Z,98010.17
2023-07-30T09:17:34.793Z,98012.27
2023-07-30T09:20:05.334Z,98012.36
2023-07-30T09:22:42.923Z,98010.79
2023-07-30T09:25:10.760Z,98004.54
2023-07-30T09:27:37.885Z,98001.35
2023-07-30T09:30:07.093Z,98003.84
2023-07-30T09:32:35.531Z,98004.38
2023-07-30T09:35:07.865Z,98004.45
2023-07-30T09:37:39.382Z,98006.73
2023-07-30T09:40:14.046Z,98008.84
2023-07-30T09:42:45.567Z,98004.63
2023-07-30T09:45:25.866Z,98010.64
2023-07-30T09:47:53.445Z,98009.85
2023-07-30T09:50:20.622Z,98008.04
2023-07-30T09:52:47.691Z,98009.20
2023-07-30T09:55:14.876Z,98009.02
2023-07-30T09:57:41.965Z,98010.36
2023-07-30T10:00:12.343Z,98007.16
2023-07-30T10:02:41.990Z,98009.98
2023-07-30T10:05:12.130Z,98006.27
2023-07-30T10:07:41.819Z,98013.61
2023-07-30T10:10:09.275Z,98011.19
2023-07-30T10:12:36.373Z,98010.80
2023-07-30T10:15:03.655Z,98013.61
2023-07-30T10:17:31.153Z,98020.09
2023-07-30T10:19:58.217Z,98020.02
2023-07-30T10:22:26.392Z,98022.42
2023-07-30T10:24:57.907Z,98024.54
2023-07-30T10:27:26.257Z,98021.08
2023-07-30T10:30:15.695Z,98016.08
2023-07-30T10:33:00.403Z,98022.02
2023-07-30T10:35:48.591Z,98022.77
2023-07-30T10:38:20.277Z,98018.87
2023-07-30T10:41:12.698Z,98019.50
2023-07-30T10:43:43.174Z,98014.02
2023-07-30T10:46:11.435Z,98015.98
2023-07-30T10:48:42.568Z,98016.98
2023-07-30T10:51:12.108Z,98013.71
2023-07-30T10:53:40.542Z,98013.16
2023-07-30T10:56:08.084Z,98016.80
2023-07-30T10:58:35.945Z,98010.12
2023-07-30T11:01:07.100Z,98011.42
2023-07-30T11:03:34.426Z,98005.79
2023-07-30T11:06:02.137Z,98007.04
2023-07-30T11:08:39.816Z,98004.63
2023-07-30T11:11:08.047Z,98004.19
2023-07-30T11:13:44.129Z,98004.96
2023-07-30T11:16:11.573Z,98002.55
2023-07-30T11:18:39.256Z,98003.13
2023-07-30T11:21:10.598Z,97993.06
2023-07-30T11:23:38.494Z,97994.53
2023-07-30T11:26:07.741Z,97997.39
2023-07-30T11:28:38.917Z,97994.02
2023-07-30T11:31:27.910Z,97995.17
2023-07-30T11:33:55.044Z,97994.61
2023-07-30T11:36:23.572Z,97988.19
2023-07-30T11:38:50.734Z,97986.95
2023-07-30T11:41:17.826Z,97990.64
2023-07-30T11:43:45.071Z,97985.20
2023-07-30T11:46:14.214Z,97973.44
2023-07-30T11:48:42.312Z,97975.14
2023-07-30T11:51:29.100Z,97971.35
2023-07-30T11:54:01.507Z,97974.55
2023-07-30T11:56:32.318Z,97970.20
2023-07-30T11:59:04.786Z,97964.42
2023-07-30T12:01:35.815Z,97960.30
2023-07-30T12:04:04.652Z,97956.23
2023-07-30T12:06:48.194Z,97957.79
2023-07-30T12:09:20.628Z,97946.70
2023-07-30T12:11:51.703Z,97940.92
2023-07-30T12:14:19.634Z,97940.62
2023-07-30T12:16:46.964Z,97942.34
2023-07-30T12:19:14.111Z,97942.27
2023-07-30T12:21:41.288Z,97942.18
2023-07-30T12:24:08.464Z,97942.27
2023-07-30T12:26:35.614Z,97943.66
2023-07-30T12:29:02.893Z,97939.76
2023-07-30T12:31:30.171Z,97939.61
2023-07-30T12:33:57.342Z,97936.80
2023-07-30T12:36:24.514Z,97936.17
2023-07-30T12:38:54.554Z,97935.94
2023-07-30T12:41:26.941Z,97936.39
2023-07-30T12:43:54.899Z,97928.30
2023-07-30T12:46:22.614Z,97932.27
2023-07-30T12:48:49.889Z,97928.69
2023-07-30T12:51:16.948Z,97931.08
2023-07-30T12:53:43.984Z,97929.23
2023-07-30T12:56:11.216Z,97929.10
2023-07-30T12:58:38.611Z,97928.30
2023-07-30T13:01:05.910Z,97931.93
2023-07-30T13:03:33.220Z,97936.05
2023-07-30T13:06:00.549Z,97936.40
2023-07-30T13:08:27.788Z,97935.13
2023-07-30T13:10:54.957Z,97935.57
2023-07-30T13:13:22.023Z,97934.11
2023-07-30T13:15:49.229Z,97931.45
2023-07-30T13:18:16.344Z,97930.89
2023-07-30T13:20:43.452Z,97929.23
2023-07-30T13:23:10.570Z,97929.20
2023-07-30T13:25:37.769Z,97927.77
2023-07-30T13:28:04.935Z,97926.96
2023-07-30T13:30:32.050Z,97924.67
2023-07-30T13:32:59.110Z,97920.45
2023-07-30T13:35:26.335Z,97918.55
2023-07-30T13:37:53.310Z,97920.58
2023-07-30T13:40:20.555Z,97923.73
2023-07-30T13:42:47.605Z,97926.01
2023-07-30T13:45:14.865Z,97926.30
2023-07-30T13:47:43.067Z,97923.51
2023-07-30T13:50:10.767Z,97932.32
2023-07-30T13:52:37.851Z,97937.61
2023-07-30T13:55:05.382Z,97938.36
2023-07-30T13:57:34.475Z,97939.30
2023-07-30T14:00:03.041Z,97937.73
2023-07-30T14:02:32.362Z,97942.30
2023-07-30T14:04:59.629Z,97946.86
2023-07-30T14:07:26.992Z,97952.27
2023-07-30T14:09:54.111Z,97956.64
2023-07-30T14:12:21.150Z,97956.30
2023-07-30T14:14:48.269Z,97956.23
2023-07-30T14:17:17.032Z,97955.71
2023-07-30T14:19:44.356Z,97954.59
2023-07-30T14:22:11.313Z,97951.48
2023-07-30T14:24:38.928Z,97948.19
2023-07-30T14:27:06.395Z,97946.36
2023-07-30T14:29:34.128Z,97943.81
2023-07-30T14:32:01.145Z,97949.60
2023-07-30T14:34:28.175Z,97951.58
2023-07-30T14:36:55.633Z,97946.80
2023-07-30T14:39:22.610Z,97942.19
2023-07-30T14:41:49.789Z,97944.24
2023-07-30T14:44:16.899Z,97937.92
2023-07-30T14:46:44.011Z,97941.31
2023-07-30T14:49:11.361Z,97939.71
2023-07-30T14:51:38.674Z,97945.62
2023-07-30T14:54:05.887Z,97944.27
2023-07-30T14:56:32.957Z,97943.89
2023-07-30T14:59:00.056Z,97948.21
2023-07-30T15:01:29.692Z,97946.67
2023-07-30T15:03:56.863Z,97952.59
2023-07-30T15:06:25.442Z,97954.54
2023-07-30T15:08:52.520Z,97954.80
2023-07-30T15:11:19.816Z,97953.73
2023-07-30T15:13:46.879Z,97952.30
2023-07-30T15:16:13.975Z,97957.14
2023-07-30T15:18:43.017Z,97958.12
2023-07-30T15:21:13.660Z,97959.62
2023-07-30T15:23:43.045Z,97960.42
2023-07-30T15:26:10.277Z,97965.23
2023-07-30T15:28:37.305Z,97967.95
2023-07-30T15:31:04.549Z,97967.17
2023-07-30T15:33:33.765Z,97979.08
2023-07-30T15:36:03.193Z,97981.87
2023-07-30T15:38:30.566Z,97982.56
2023-07-30T15:40:58.373Z,97988.55
2023-07-30T15:43:25.885Z,97992.26
2023-07-30T15:45:54.345Z,97996.86
2023-07-30T15:48:22.435Z,98001.88
2023-07-30T15:50:49.837Z,98003.80
2023-07-30T15:53:16.912Z,98006.46
2023-07-30T15:55:45.218Z,98005.67
2023-07-30T15:58:12.447Z,98007.34
2023-07-30T16:00:39.624Z,98010.34
2023-07-30T16:03:08.614Z,98010.99
2023-07-30T16:05:39.519Z,98010.02
2023-07-30T16:08:06.613Z,98005.98
2023-07-30T16:10:33.730Z,98009.17
2023-07-30T16:13:00.790Z,98006.66
2023-07-30T16:15:28.869Z,98008.45
2023-07-30T16:17:56.117Z,98012.73
2023-07-30T16:20:23.604Z,98014.27
2023-07-30T16:22:50.892Z,98017.55
2023-07-30T16:25:18.095Z,98019.51
2023-07-30T16:27:45.179Z,98020.52
2023-07-30T16:30:12.472Z,98026.86
2023-07-30T16:32:40.028Z,98030.96
2023-07-30T16:35:07.270Z,98029.27
2023-07-30T16:37:34.865Z,98031.04
2023-07-30T16:40:01.920Z,98031.70
2023-07-30T16:42:29.158Z,98033.86
2023-07-30T16:44:56.298Z,98033.09
2023-07-30T16:47:23.345Z,98031.45
2023-07-30T16:49:50.716Z,98032.85
2023-07-30T16:52:17.987Z,98030.34
2023-07-30T16:54:45.615Z,98030.11
2023-07-30T16:57:12.662Z,98029.06
2023-07-30T16:59:41.853Z,98030.48
2023-07-30T17:02:08.844Z,98031.37
2023-07-30T17:04:36.081Z,98026.09
2023-07-30T17:07:03.427Z,98023.95
2023-07-30T17:09:30.557Z,98023.02
2023-07-30T17:11:57.546Z,98016.55
2023-07-30T17:14:24.695Z,98013.16
2023-07-30T17:16:51.778Z,98011.05
2023-07-30T17:19:18.943Z,98010.10
2023-07-30T17:21:46.700Z,98019.48
2023-07-30T17:24:13.733Z,98017.95
2023-07-30T17:26:41.153Z,98018.23
2023-07-30T17:29:08.649Z,98016.16
2023-07-30T17:31:35.760Z,98018.63
2023-07-30T17:34:02.936Z,98016.96
2023-07-30T17:36:31.775Z,98018.11
2023-07-30T17:38:59.521Z,98013.89
2023-07-30T17:41:27.781Z,98014.89
2023-07-30T17:43:54.908Z,98016.20
2023-07-30T17:46:22.487Z,98018.35
2023-07-30T17:48:50.286Z,98026.31
2023-07-30T17:51:18.555Z,98029.03
2023-07-30T17:53:45.899Z,98028.98
2023-07-30T17:56:13.056Z,98027.42
2023-07-30T17:58:40.241Z,98028.63
2023-07-30T18:01:07.403Z,98025.48
2023-07-30T18:03:35.689Z,98026.02
2023-07-30T18:06:03.309Z,98030.55
2023-07-30T18:08:30.966Z,98035.72
2023-07-30T18:10:58.139Z,98039.33
2023-07-30T18:13:25.338Z,98041.05
2023-07-30T18:15:52.426Z,98040.77
2023-07-30T18:18:21.379Z,98041.17
2023-07-30T18:20:48.609Z,98040.27
2023-07-30T18:23:15.722Z,98035.02
2023-07-30T18:25:42.814Z,98033.60
2023-07-30T18:28:10.026Z,98034.68
2023-07-30T18:30:38.087Z,98038.59
2023-07-30T18:33:08.335Z,98045.86
2023-07-30T18:35:37.742Z,98051.39
2023-07-30T18:38:05.409Z,98056.11
2023-07-30T18:40:36.175Z,98065.41
2023-07-30T18:43:03.340Z,98063.32
2023-07-30T18:45:36.556Z,98063.30
2023-07-30T18:48:04.059Z,98063.36
2023-07-30T18:50:32.276Z,98058.58
2023-07-30T18:53:01.299Z,98061.98
2023-07-30T18:55:28.408Z,98061.98
2023-07-30T18:57:55.482Z,98068.15
2023-07-30T19:00:22.492Z,98070.67
2023-07-30T19:02:49.781Z,98073.45
2023-07-30T19:05:17.036Z,98072.88
2023-07-30T19:07:44.041Z,98074.00
2023-07-30T19:10:11.475Z,98079.77
2023-07-30T19:12:38.681Z,98075.38
2023-07-30T19:15:06.383Z,98076.82
2023-07-30T19:17:33.628Z,98074.80
2023-07-30T19:20:00.935Z,98074.81
2023-07-30T19:22:28.155Z,98077.27
2023-07-30T19:24:55.355Z,98076.13
2023-07-30T19:27:22.537Z,98078.57
2023-07-30T19:29:49.762Z,98076.42
2023-07-30T19:32:16.901Z,98077.23
2023-07-30T19:34:43.954Z,98085.45
2023-07-30T19:37:11.145Z,98084.66
2023-07-30T19:39:38.218Z,98085.19
2023-07-30T19:42:05.603Z,98092.63
2023-07-30T19:44:32.828Z,98091.92
2023-07-30T19:46:59.951Z,98088.73
2023-07-30T19:49:27.512Z,98093.27
2023-07-30T19:51:55.097Z,98085.52
2023-07-30T19:54:22.127Z,98090.84
2023-07-30T19:56:49.266Z,98089.16
2023-07-30T19:59:16.412Z,98089.08
2023-07-30T20:01:43.463Z,98091.80
2023-07-30T20:04:10.602Z,98091.86
2023-07-30T20:06:38.036Z,98090.26
2023-07-30T20:09:05.263Z,98095.49
2023-07-30T20:11:32.875Z,98092.36
2023-07-30T20:14:00.236Z,98089.36
2023-07-30T20:16:27.302Z,98087.55
2023-07-30T20:18:54.424Z,98085.04
2023-07-30T20:21:24.057Z,98090.07
2023-07-30T20:23:52.503Z,98090.79
2023-07-30T20:26:19.793Z,98092.58
2023-07-30T20:28:56.826Z,98095.43
2023-07-30T20:31:23.972Z,98097.38
2023-07-30T20:33:51.203Z,98096.52
2023-07-30T20:36:18.350Z,98098.02
2023-07-30T20:38:45.352Z,98098.46
2023-07-30T20:41:12.475Z,98102.33
2023-07-30T20:43:43.362Z,98102.84
2023-07-30T20:46:14.568Z,98098.16
2023-07-30T20:48:42.689Z,98094.75
2023-07-30T20:51:10.524Z,98093.07
2023-07-30T20:53:37.674Z,98097.91
2023-07-30T20:56:05.041Z,98091.22
2023-07-30T20:58:32.358Z,98090.65
2023-07-30T21:00:59.461Z,98082.79
2023-07-30T21:03:26.628Z,98078.80
2023-07-30T21:08:32.138Z,98079.41
2023-07-30T21:10:58.673Z,98079.99
2023-07-30T21:13:25.117Z,98077.70
2023-07-30T21:15:51.634Z,98078.36
2023-07-30T21:18:18.158Z,98073.52
2023-07-30T21:20:44.611Z,98072.36
2023-07-30T21:23:10.975Z,98070.66
2023-07-30T21:25:37.577Z,98071.41
2023-07-30T21:28:04.475Z,98067.50
2023-07-30T21:30:30.982Z,98069.73
2023-07-30T21:32:58.794Z,98068.05
2023-07-30T21:35:25.348Z,98067.41
2023-07-30T21:37:51.727Z,98066.48
2023-07-30T21:40:18.089Z,98065.94
2023-07-30T21:42:45.120Z,98061.73
2023-07-30T21:45:11.505Z,98056.69
2023-07-30T21:47:37.869Z,98051.64
2023-07-30T21:50:05.632Z,98056.05
2023-07-30T21:52:32.148Z,98051.20
2023-07-30T21:54:58.476Z,98056.52
2023-07-30T21:57:25.144Z,98062.91
2023-07-30T21:59:52.275Z,98061.19
2023-07-30T22:02:18.867Z,98060.16
2023-07-30T22:04:45.274Z,98062.45
2023-07-30T22:07:13.205Z,98060.11
2023-07-30T22:09:40.532Z,98057.61
2023-07-30T22:12:07.572Z,98057.98
2023-07-30T22:14:34.137Z,98052.14
2023-07-30T22:17:00.609Z,98048.05
2023-07-30T22:19:26.893Z,98048.02
2023-07-30T22:21:53.228Z,98048.07
2023-07-30T22:24:19.569Z,98050.27
2023-07-30T22:26:45.902Z,98053.48
2023-07-30T22:29:12.304Z,98049.01
2023-07-30T22:31:41.663Z,98046.09
2023-07-30T22:34:08.058Z,98042.79
2023-07-30T22:36:34.459Z,98036.00
2023-07-30T22:39:00.862Z,98036.17
2023-07-30T22:41:28.208Z,98037.84
2023-07-30T22:43:56.784Z,98035.27
2023-07-30T22:46:23.355Z,98035.52
2023-07-30T22:48:49.823Z,98037.11
2023-07-30T22:51:16.208Z,98034.65
2023-07-30T22:53:42.584Z,98037.79
2023-07-30T22:56:09.059Z,98033.45
2023-07-30T22:58:36.158Z,98034.72
2023-07-30T23:01:02.662Z,98030.55
2023-07-30T23:03:29.398Z,98034.32
2023-07-30T23:05:55.784Z,98038.09
2023-07-30T23:08:22.190Z,98038.05
2023-07-30T23:10:49.766Z,98043.29
2023-07-30T23:13:16.102Z,98042.23
2023-07-30T23:15:42.717Z,98045.42
2023-07-30T23:18:09.138Z,98043.89
2023-07-30T23:20:35.631Z,98046.66
2023-07-30T23:23:02.346Z,98048.96
2023-07-30T23:25:28.976Z,98051.33
2023-07-30T23:27:55.474Z,98054.95
2023-07-30T23:30:21.949Z,98060.25
2023-07-30T23:32:48.340Z,98055.95
2023-07-30T23:35:14.920Z,98056.77
2023-07-30T23:37:41.254Z,98059.60
2023-07-30T23:40:08.094Z,98059.27
2023-07-30T23:42:34.467Z,98060.78
2023-07-30T23:45:00.932Z,98056.42
2023-07-30T23:47:27.326Z,98055.24
2023-07-30T23:49:53.817Z,98056.15
2023-07-30T23:52:20.242Z,98051.55
2023-07-30T23:54:46.592Z,98049.97
2023-07-30T23:57:12.894Z,98052.93
2023-07-30T23:59:39.248Z,98055.19
